Time;durP1;ratioP1;P1;durP2;ratioP2;P2;SDS_P1;SDS_P2;PMS_P1;PMS_P2;Temp;Humidity;BMP_temperature;BMP_pressure;BME280_temperature;BME280_humidity;BME280_pressure;Samples;Min_cycle;Max_cycle;Signal;HPM_P1;HPM_P2
2023/11/20 00:02:20;;;;;;;7.22;3.85;;;13.30;99.90;;;;;;4977207;28;20482;-82
2023/11/20 00:04:48;;;;;;;8.57;4.40;;;13.30;99.90;;;;;;4978712;28;20215;-83
2023/11/20 00:07:15;;;;;;;7.20;3.87;;;13.30;99.90;;;;;;4978622;28;20882;-83
2023/11/20 00:09:42;;;;;;;9.73;3.70;;;13.30;99.90;;;;;;4977692;28;20555;-79
2023/11/20 00:12:10;;;;;;;9.67;3.93;;;13.20;99.90;;;;;;4977062;28;20471;-79
2023/11/20 00:14:37;;;;;;;5.72;3.50;;;13.20;99.90;;;;;;4977027;28;20529;-83
2023/11/20 00:17:04;;;;;;;4.50;3.28;;;13.10;99.90;;;;;;4970141;28;20342;-79
2023/11/20 00:19:32;;;;;;;6.55;3.70;;;13.10;99.90;;;;;;4977421;28;20231;-79
2023/11/20 00:22:01;;;;;;;6.15;3.72;;;13.10;99.90;;;;;;4977327;28;20319;-79
2023/11/20 00:24:28;;;;;;;15.07;4.28;;;13.10;99.90;;;;;;4976799;28;20230;-83
2023/11/20 00:26:54;;;;;;;8.07;3.90;;;13.10;99.90;;;;;;4977855;28;20661;-79
2023/11/20 00:29:21;;;;;;;6.73;3.90;;;13.10;99.90;;;;;;4977198;28;20293;-82
2023/11/20 00:31:48;;;;;;;9.45;4.40;;;13.10;99.90;;;;;;4976911;28;20466;-79
2023/11/20 00:34:15;;;;;;;6.00;3.80;;;13.10;99.90;;;;;;4976843;28;20228;-79
2023/11/20 00:36:45;;;;;;;9.93;3.90;;;13.10;99.90;;;;;;4976991;28;20548;-83
2023/11/20 00:39:20;;;;;;;6.45;3.80;;;13.00;99.90;;;;;;4977415;28;20230;-82
2023/11/20 00:41:47;;;;;;;6.63;3.60;;;13.00;99.90;;;;;;4975897;28;20302;-83
2023/11/20 00:44:16;;;;;;;6.57;4.22;;;13.00;99.90;;;;;;4977052;28;20471;-83
2023/11/20 00:46:43;;;;;;;4.18;2.75;;;13.00;99.90;;;;;;4976824;28;20235;-82
2023/11/20 00:49:24;;;;;;;17.67;7.38;;;13.00;99.90;;;;;;4977131;28;20321;-83
2023/11/20 00:51:51;;;;;;;11.10;6.33;;;12.90;99.90;;;;;;4976046;28;20231;-80
2023/11/20 00:54:19;;;;;;;14.27;8.98;;;13.00;99.90;;;;;;4977002;28;20474;-79
2023/11/20 00:56:46;;;;;;;8.52;6.35;;;12.90;99.90;;;;;;4976436;28;20697;-79
2023/11/20 00:59:13;;;;;;;10.93;4.90;;;13.00;99.90;;;;;;4967406;28;20314;-79
2023/11/20 01:01:40;;;;;;;7.55;4.20;;;13.00;99.90;;;;;;4976179;28;20231;-83
2023/11/20 01:04:07;;;;;;;4.28;2.90;;;12.90;99.90;;;;;;4976849;28;20231;-80
2023/11/20 01:06:41;;;;;;;7.73;4.53;;;13.00;99.90;;;;;;4966253;28;20300;-80
2023/11/20 01:09:08;;;;;;;7.60;3.42;;;12.90;99.90;;;;;;4976288;28;20530;-83
2023/11/20 01:11:37;;;;;;;7.40;3.30;;;12.90;99.90;;;;;;4976143;28;20310;-80
2023/11/20 01:14:06;;;;;;;7.60;2.95;;;12.90;99.90;;;;;;4976353;28;20250;-79
2023/11/20 01:16:33;;;;;;;4.38;3.10;;;12.90;99.90;;;;;;4976764;28;20231;-80
2023/11/20 01:19:00;;;;;;;6.63;2.55;;;12.90;99.90;;;;;;4976018;28;20598;-79
2023/11/20 01:21:27;;;;;;;6.32;2.85;;;12.90;99.90;;;;;;4976475;28;20230;-79
2023/11/20 01:23:54;;;;;;;8.75;3.83;;;12.90;99.90;;;;;;4974733;28;20302;-78
2023/11/20 01:26:21;;;;;;;6.47;3.67;;;12.90;99.90;;;;;;4976278;28;20311;-78
2023/11/20 01:28:49;;;;;;;8.45;3.45;;;12.90;99.90;;;;;;4976057;28;20255;-79
2023/11/20 01:31:16;;;;;;;9.10;3.50;;;12.90;99.90;;;;;;4976599;28;20290;-79
2023/11/20 01:33:43;;;;;;;2.38;2.13;;;12.80;99.90;;;;;;4975146;28;20235;-79
2023/11/20 01:36:15;;;;;;;7.85;3.20;;;12.80;99.90;;;;;;4976894;28;20688;-79
2023/11/20 01:38:42;;;;;;;5.35;3.03;;;12.90;99.90;;;;;;4975665;28;20232;-82
2023/11/20 01:41:09;;;;;;;6.32;2.55;;;12.80;99.90;;;;;;4976412;28;20224;-82
2023/11/20 01:43:36;;;;;;;8.70;2.80;;;12.80;99.90;;;;;;4975972;28;20761;-78
2023/11/20 01:46:09;;;;;;;2.97;2.53;;;12.80;99.90;;;;;;4974989;28;20227;-82
2023/11/20 01:48:37;;;;;;;7.00;2.60;;;12.80;99.90;;;;;;4975844;28;20239;-79
2023/11/20 01:51:08;;;;;;;6.50;3.53;;;12.80;99.90;;;;;;4975825;28;20227;-78
2023/11/20 01:53:36;;;;;;;5.32;2.60;;;12.80;99.90;;;;;;4975847;28;20294;-78
2023/11/20 01:56:06;;;;;;;9.23;2.97;;;12.80;99.90;;;;;;4975358;28;20219;-82
2023/11/20 01:58:35;;;;;;;7.80;2.95;;;12.80;99.90;;;;;;4965603;28;20231;-82
2023/11/20 02:01:05;;;;;;;4.95;2.50;;;12.80;99.90;;;;;;4974953;28;20231;-78
2023/11/20 02:03:37;;;;;;;3.88;2.28;;;12.80;99.90;;;;;;4975605;28;20235;-82
2023/11/20 02:06:04;;;;;;;9.75;3.20;;;12.80;99.90;;;;;;4973941;28;20278;-78
2023/11/20 02:08:31;;;;;;;8.63;3.70;;;12.80;99.90;;;;;;4975617;28;20263;-78
2023/11/20 02:11:00;;;;;;;4.30;2.67;;;12.90;99.90;;;;;;4974790;28;20231;-79
2023/11/20 02:13:29;;;;;;;3.92;2.75;;;12.90;99.90;;;;;;4975611;28;20699;-82
2023/11/20 02:15:57;;;;;;;5.07;2.63;;;12.90;99.90;;;;;;4975259;28;20223;-82
2023/11/20 02:18:30;;;;;;;5.65;2.88;;;13.00;99.90;;;;;;4975880;28;20231;-78
2023/11/20 02:20:57;;;;;;;4.10;2.40;;;13.00;99.90;;;;;;4975474;28;20298;-81
2023/11/20 02:23:27;;;;;;;6.20;2.15;;;13.00;99.90;;;;;;4975538;28;20286;-78
2023/11/20 02:26:09;;;;;;;5.20;2.20;;;13.10;99.90;;;;;;4974832;28;20287;-78
2023/11/20 02:28:40;;;;;;;3.90;2.65;;;13.10;99.90;;;;;;4975253;28;20227;-79
2023/11/20 02:31:11;;;;;;;4.10;2.85;;;13.10;99.90;;;;;;4974046;28;20224;-82
2023/11/20 02:33:39;;;;;;;7.93;2.47;;;13.10;99.90;;;;;;4974733;28;20245;-82
2023/11/20 02:36:06;;;;;;;2.37;2.17;;;13.10;99.90;;;;;;4973868;28;20968;-78
2023/11/20 02:38:33;;;;;;;3.30;1.70;;;13.20;99.90;;;;;;4975016;28;20478;-78
2023/11/20 02:41:02;;;;;;;3.23;2.00;;;13.20;99.90;;;;;;4974174;28;20556;-79
2023/11/20 02:43:29;;;;;;;2.67;1.90;;;13.20;99.90;;;;;;4974162;28;20495;-82
2023/11/20 02:45:56;;;;;;;4.38;2.25;;;13.30;99.90;;;;;;4974597;28;20474;-79
2023/11/20 02:48:26;;;;;;;4.25;2.67;;;13.30;99.90;;;;;;4975039;28;20227;-79
2023/11/20 02:50:53;;;;;;;3.55;1.67;;;13.30;99.90;;;;;;4974482;28;20243;-79
2023/11/20 02:53:20;;;;;;;2.40;1.93;;;13.30;99.90;;;;;;4975065;28;20672;-79
2023/11/20 02:55:49;;;;;;;3.73;1.90;;;13.30;99.90;;;;;;4975020;28;20470;-79
2023/11/20 02:58:16;;;;;;;4.18;2.08;;;13.30;99.90;;;;;;4974803;28;20463;-82
2023/11/20 03:00:42;;;;;;;2.60;1.42;;;13.30;99.90;;;;;;4975233;28;20231;-82
2023/11/20 03:03:12;;;;;;;2.85;1.67;;;13.40;99.90;;;;;;4974493;28;20351;-82
2023/11/20 03:05:41;;;;;;;2.50;2.25;;;13.40;99.90;;;;;;4974940;28;20227;-79
2023/11/20 03:08:07;;;;;;;3.55;1.70;;;13.40;99.90;;;;;;4973850;28;20235;-79
2023/11/20 03:10:34;;;;;;;4.00;2.10;;;13.40;99.90;;;;;;4974717;28;20314;-78
2023/11/20 03:13:12;;;;;;;2.30;2.10;;;13.40;99.90;;;;;;4964182;28;20595;-81
2023/11/20 03:15:40;;;;;;;3.72;1.73;;;13.40;99.90;;;;;;4973998;28;20553;-78
2023/11/20 03:18:09;;;;;;;2.13;1.93;;;13.40;99.90;;;;;;4974148;28;20227;-82
2023/11/20 03:20:36;;;;;;;4.68;2.10;;;13.40;99.90;;;;;;4975129;28;20517;-82
2023/11/20 03:23:04;;;;;;;3.67;1.93;;;13.40;99.90;;;;;;4974001;28;20724;-81
2023/11/20 03:25:31;;;;;;;2.13;1.83;;;13.40;99.90;;;;;;4974971;28;20491;-82
2023/11/20 03:27:58;;;;;;;2.28;1.80;;;13.40;99.90;;;;;;4974245;28;20991;-79
2023/11/20 03:30:27;;;;;;;3.03;2.07;;;13.40;99.90;;;;;;4974670;28;20251;-79
2023/11/20 03:32:54;;;;;;;2.40;1.50;;;13.40;99.90;;;;;;4974889;28;20477;-79
2023/11/20 03:35:22;;;;;;;2.45;2.25;;;13.40;99.90;;;;;;4974424;28;20526;-82
2023/11/20 03:37:49;;;;;;;2.15;1.50;;;13.40;99.90;;;;;;4975015;28;20239;-82
2023/11/20 03:40:17;;;;;;;3.60;2.03;;;13.40;99.90;;;;;;4974135;28;20246;-79
2023/11/20 03:42:44;;;;;;;2.90;1.77;;;13.40;99.90;;;;;;4974604;28;20323;-78
2023/11/20 03:45:11;;;;;;;1.98;1.77;;;13.40;99.90;;;;;;4974263;28;20549;-79
2023/11/20 03:47:38;;;;;;;3.40;1.52;;;13.40;99.90;;;;;;4974828;28;20231;-79
2023/11/20 03:50:06;;;;;;;4.97;1.90;;;13.40;99.90;;;;;;4973417;28;20238;-82
2023/11/20 03:52:33;;;;;;;3.85;1.50;;;13.40;99.90;;;;;;4974652;28;20311;-82
2023/11/20 03:55:00;;;;;;;3.45;1.85;;;13.40;99.90;;;;;;4973940;28;20228;-82
2023/11/20 03:57:29;;;;;;;3.23;1.57;;;13.40;99.90;;;;;;4974582;28;20251;-82
2023/11/20 03:59:56;;;;;;;3.55;1.80;;;13.40;99.90;;;;;;4974449;28;20529;-82
2023/11/20 04:02:22;;;;;;;4.70;1.90;;;13.40;99.90;;;;;;4973473;28;20265;-79
2023/11/20 04:04:49;;;;;;;7.07;2.10;;;13.40;99.90;;;;;;4974198;28;20495;-82
2023/11/20 04:07:16;;;;;;;3.45;2.03;;;13.40;99.90;;;;;;4973984;28;20314;-82
2023/11/20 04:09:43;;;;;;;4.82;2.08;;;13.30;99.90;;;;;;4977636;28;20259;-79
2023/11/20 04:12:10;;;;;;;2.50;1.73;;;13.30;99.90;;;;;;4976843;28;20235;-79
2023/11/20 04:14:39;;;;;;;4.90;2.00;;;13.30;99.90;;;;;;4977519;28;20254;-78
2023/11/20 04:17:06;;;;;;;4.33;1.77;;;13.30;99.90;;;;;;4977190;28;20306;-81
2023/11/20 04:19:33;;;;;;;2.75;2.10;;;13.20;99.90;;;;;;4977471;28;20477;-79
2023/11/20 04:22:00;;;;;;;4.30;2.08;;;13.20;99.90;;;;;;4977242;28;20259;-79
2023/11/20 04:24:27;;;;;;;3.63;1.50;;;13.20;99.90;;;;;;4977663;28;20245;-82
2023/11/20 04:26:54;;;;;;;1.88;1.67;;;13.20;99.90;;;;;;4977377;28;20555;-82
2023/11/20 04:29:21;;;;;;;2.33;1.80;;;13.20;99.90;;;;;;4976742;28;20314;-82
2023/11/20 04:31:51;;;;;;;2.95;1.67;;;13.30;99.90;;;;;;4977244;28;20483;-78
2023/11/20 04:34:19;;;;;;;2.17;1.50;;;13.20;99.90;;;;;;4976838;28;20548;-79
2023/11/20 04:36:47;;;;;;;2.40;1.93;;;13.20;99.90;;;;;;4976709;28;20533;-82
2023/11/20 04:39:16;;;;;;;6.97;2.17;;;13.30;99.90;;;;;;4977209;28;20808;-82
2023/11/20 04:41:42;;;;;;;15.47;2.73;;;13.30;99.90;;;;;;4977443;28;20569;-82
2023/11/20 04:44:09;;;;;;;1.65;1.27;;;13.30;99.90;;;;;;4976981;28;20558;-82
2023/11/20 04:46:36;;;;;;;2.37;1.70;;;13.20;99.90;;;;;;4977577;28;20227;-82
2023/11/20 04:49:05;;;;;;;1.52;1.40;;;13.20;99.90;;;;;;4977651;28;20475;-82
2023/11/20 04:51:32;;;;;;;3.45;2.05;;;13.30;99.90;;;;;;4976503;28;20282;-78
2023/11/20 04:53:59;;;;;;;2.50;1.60;;;13.30;99.90;;;;;;4976946;28;20615;-82
2023/11/20 04:56:25;;;;;;;1.73;1.63;;;13.30;99.90;;;;;;4976638;28;20677;-82
2023/11/20 04:58:52;;;;;;;2.37;1.67;;;13.20;99.90;;;;;;4976836;28;20463;-81
2023/11/20 05:01:21;;;;;;;2.53;2.15;;;13.30;99.90;;;;;;4976366;28;20483;-81
2023/11/20 05:03:48;;;;;;;3.50;2.50;;;13.30;99.90;;;;;;4967275;28;20235;-82
2023/11/20 05:06:16;;;;;;;2.93;2.53;;;13.30;99.90;;;;;;4975848;28;20685;-79
2023/11/20 05:08:43;;;;;;;5.70;3.90;;;13.30;99.90;;;;;;4976996;28;20522;-78
2023/11/20 05:11:13;;;;;;;5.80;5.27;;;13.30;99.90;;;;;;4976796;28;21032;-78
2023/11/20 05:13:40;;;;;;;6.53;5.13;;;13.30;99.90;;;;;;4973668;28;20471;-78
2023/11/20 05:16:07;;;;;;;6.00;5.40;;;13.40;99.90;;;;;;4976756;28;20474;-82
2023/11/20 05:18:37;;;;;;;4.32;2.83;;;13.40;99.90;;;;;;4976017;28;20565;-82
2023/11/20 05:21:05;;;;;;;3.97;2.40;;;13.40;99.90;;;;;;4976632;28;20231;-82
2023/11/20 05:23:33;;;;;;;8.33;2.47;;;13.40;99.90;;;;;;4975997;28;20232;-78
2023/11/20 05:26:00;;;;;;;3.20;1.77;;;13.40;99.90;;;;;;4976889;28;20546;-82
2023/11/20 05:28:27;;;;;;;2.10;1.90;;;13.30;99.90;;;;;;4965111;28;20859;-79
2023/11/20 05:30:54;;;;;;;3.55;1.70;;;13.30;99.90;;;;;;4976378;28;20503;-82
2023/11/20 05:33:24;;;;;;;3.10;2.53;;;13.40;99.90;;;;;;4976414;28;20254;-79
2023/11/20 05:35:51;;;;;;;2.03;1.70;;;13.40;99.90;;;;;;4975678;28;20476;-82
2023/11/20 05:38:18;;;;;;;3.10;1.87;;;13.40;99.90;;;;;;4975916;28;20518;-82
2023/11/20 05:40:47;;;;;;;2.50;1.90;;;13.40;99.90;;;;;;4975507;28;20506;-78
2023/11/20 05:43:14;;;;;;;2.13;1.60;;;13.40;99.90;;;;;;4975472;28;20227;-82
2023/11/20 05:45:41;;;;;;;4.17;1.87;;;13.30;99.90;;;;;;4975694;28;20781;-78
2023/11/20 05:48:08;;;;;;;1.60;1.50;;;13.30;99.90;;;;;;4976092;28;20471;-82
2023/11/20 05:50:35;;;;;;;2.10;1.90;;;13.30;99.90;;;;;;4975644;28;20977;-79
2023/11/20 05:53:03;;;;;;;2.40;1.63;;;13.30;99.90;;;;;;4975936;28;20479;-78
2023/11/20 05:55:32;;;;;;;3.17;2.27;;;13.40;99.90;;;;;;4975312;28;20228;-79
2023/11/20 05:58:00;;;;;;;1.80;1.63;;;13.40;99.90;;;;;;4976284;28;20467;-82
2023/11/20 06:00:27;;;;;;;4.20;1.77;;;13.40;99.90;;;;;;4976632;28;20235;-83
2023/11/20 06:02:55;;;;;;;2.15;2.03;;;13.40;99.90;;;;;;4975813;28;20223;-82
2023/11/20 06:05:22;;;;;;;2.30;1.80;;;13.40;99.90;;;;;;4975684;28;20652;-78
2023/11/20 06:07:49;;;;;;;2.37;2.13;;;13.50;99.90;;;;;;4974713;28;20219;-82
2023/11/20 06:10:17;;;;;;;2.20;1.80;;;13.40;99.90;;;;;;4976182;28;20506;-83
2023/11/20 06:12:49;;;;;;;2.97;2.00;;;13.40;99.90;;;;;;4975469;28;20249;-82
2023/11/20 06:15:17;;;;;;;2.17;1.98;;;13.40;99.90;;;;;;4975638;28;20463;-79
2023/11/20 06:17:45;;;;;;;2.43;1.90;;;13.50;99.90;;;;;;4975542;28;20242;-79
2023/11/20 06:20:16;;;;;;;3.30;2.30;;;13.50;99.90;;;;;;4976023;28;20459;-79
2023/11/20 06:22:43;;;;;;;3.00;2.30;;;13.50;99.90;;;;;;4974761;28;20489;-78
2023/11/20 06:25:12;;;;;;;2.77;2.20;;;13.50;99.90;;;;;;4975842;28;20487;-83
2023/11/20 06:27:39;;;;;;;3.67;2.27;;;13.50;99.90;;;;;;4975019;28;20546;-82
2023/11/20 06:30:08;;;;;;;2.40;2.20;;;13.50;99.90;;;;;;4975132;28;20546;-83
2023/11/20 06:32:36;;;;;;;2.80;2.30;;;13.60;99.90;;;;;;4975119;28;20227;-81
2023/11/20 06:35:03;;;;;;;5.47;4.60;;;13.50;99.90;;;;;;4975799;28;20546;-82
2023/11/20 06:37:31;;;;;;;8.50;5.20;;;13.60;99.90;;;;;;4975992;28;20475;-83
2023/11/20 06:39:57;;;;;;;6.10;4.77;;;13.60;99.90;;;;;;4965797;28;20562;-82
2023/11/20 06:42:28;;;;;;;5.07;4.18;;;13.60;99.90;;;;;;4975725;28;20562;-82
2023/11/20 06:44:58;;;;;;;3.80;3.10;;;13.60;99.90;;;;;;4975070;28;20239;-83
2023/11/20 06:47:25;;;;;;;4.63;2.93;;;13.60;99.90;;;;;;4975720;28;20234;-83
2023/11/20 06:49:53;;;;;;;2.60;2.40;;;13.60;99.90;;;;;;4974767;28;20507;-83
2023/11/20 06:52:20;;;;;;;2.73;2.53;;;13.60;99.90;;;;;;4975534;28;20562;-83
2023/11/20 06:54:48;;;;;;;2.90;2.70;;;13.70;99.90;;;;;;4974835;28;20873;-82
2023/11/20 06:57:18;;;;;;;3.07;2.87;;;13.60;99.90;;;;;;4966759;28;20695;-83
2023/11/20 06:59:45;;;;;;;3.43;3.10;;;13.70;99.90;;;;;;4974879;28;20471;-79
2023/11/20 07:02:14;;;;;;;3.60;3.30;;;13.70;99.90;;;;;;4975018;28;20471;-79
2023/11/20 07:04:45;;;;;;;2.70;2.50;;;13.70;99.90;;;;;;4974004;28;20553;-80
2023/11/20 07:07:14;;;;;;;2.87;2.50;;;13.70;99.90;;;;;;4975046;28;20852;-79
2023/11/20 07:09:41;;;;;;;5.53;5.03;;;13.70;99.90;;;;;;4974520;28;20562;-80
2023/11/20 07:12:09;;;;;;;6.67;5.50;;;13.70;99.90;;;;;;4975002;28;20478;-79
2023/11/20 07:14:36;;;;;;;5.55;4.68;;;13.70;99.90;;;;;;4974828;28;20471;-79
2023/11/20 07:17:03;;;;;;;4.97;4.40;;;13.70;99.90;;;;;;4974394;28;20219;-83
2023/11/20 07:19:30;;;;;;;4.03;3.73;;;13.80;99.90;;;;;;4975236;28;20471;-83
2023/11/20 07:21:57;;;;;;;4.53;4.13;;;13.80;99.90;;;;;;4974178;28;20479;-79
2023/11/20 07:24:26;;;;;;;5.00;4.50;;;13.80;99.90;;;;;;4974576;28;20255;-79
2023/11/20 07:26:53;;;;;;;5.90;5.30;;;13.80;99.90;;;;;;4974207;28;20478;-79
2023/11/20 07:29:20;;;;;;;6.70;4.30;;;13.80;99.90;;;;;;4974476;28;20463;-80
2023/11/20 07:31:47;;;;;;;5.03;4.23;;;13.80;99.90;;;;;;4974453;28;20992;-83
2023/11/20 07:34:14;;;;;;;4.63;4.23;;;13.90;99.90;;;;;;4974655;28;20471;-83
2023/11/20 07:36:41;;;;;;;5.63;4.95;;;13.80;99.90;;;;;;4974623;28;20467;-83
2023/11/20 07:39:09;;;;;;;4.70;4.30;;;13.80;99.90;;;;;;4974624;28;20258;-83
2023/11/20 07:41:38;;;;;;;9.50;6.53;;;13.80;99.90;;;;;;4974566;28;20474;-83
2023/11/20 07:44:05;;;;;;;7.00;5.80;;;13.80;99.90;;;;;;4977262;28;20521;-83
2023/11/20 07:46:32;;;;;;;6.30;5.70;;;13.90;99.90;;;;;;4969542;28;20570;-79
2023/11/20 07:48:59;;;;;;;7.05;6.45;;;13.80;99.90;;;;;;4977704;28;20546;-79
2023/11/20 07:51:26;;;;;;;5.97;4.70;;;13.80;99.90;;;;;;4977465;28;20227;-79
2023/11/20 07:53:53;;;;;;;4.80;4.50;;;13.90;99.90;;;;;;4977567;28;20481;-80
2023/11/20 07:56:20;;;;;;;24.30;17.93;;;13.90;99.90;;;;;;4978628;28;20808;-83
2023/11/20 07:58:48;;;;;;;20.30;17.10;;;13.90;99.90;;;;;;4977883;28;21036;-83
2023/11/20 08:01:15;;;;;;;7.53;6.90;;;13.90;99.90;;;;;;4977959;28;20513;-83
2023/11/20 08:03:43;;;;;;;6.07;5.13;;;13.90;99.90;;;;;;4977785;28;20482;-79
2023/11/20 08:06:13;;;;;;;5.57;5.10;;;13.90;99.90;;;;;;4977342;28;20836;-79
2023/11/20 08:08:40;;;;;;;5.47;4.97;;;13.90;99.90;;;;;;4978042;28;20964;-79
2023/11/20 08:11:08;;;;;;;6.77;5.43;;;13.90;99.90;;;;;;4977300;28;20478;-79
2023/11/20 08:13:35;;;;;;;7.23;5.63;;;14.00;99.90;;;;;;4977828;28;20475;-79
2023/11/20 08:16:05;;;;;;;6.30;5.70;;;14.00;99.90;;;;;;4977663;28;20480;-83
2023/11/20 08:18:33;;;;;;;5.00;4.50;;;14.00;99.90;;;;;;4978420;28;20477;-83
2023/11/20 08:21:00;;;;;;;7.10;6.40;;;14.00;99.90;;;;;;4976966;28;20477;-83
2023/11/20 08:23:27;;;;;;;8.73;6.20;;;14.00;99.90;;;;;;4980918;28;20961;-83
2023/11/20 08:25:54;;;;;;;6.30;5.03;;;14.10;99.90;;;;;;4977830;28;20813;-83
2023/11/20 08:28:21;;;;;;;6.73;4.43;;;14.00;99.90;;;;;;4978025;28;20486;-83
2023/11/20 08:30:48;;;;;;;9.13;4.57;;;14.00;99.90;;;;;;4977359;28;20473;-79
2023/11/20 08:33:16;;;;;;;5.77;5.07;;;14.00;99.90;;;;;;4977452;28;20494;-83
2023/11/20 08:35:44;;;;;;;4.40;3.93;;;14.10;99.90;;;;;;4976899;28;20764;-83
2023/11/20 08:38:12;;;;;;;4.72;4.32;;;14.10;99.90;;;;;;4977662;28;20529;-83
2023/11/20 08:40:40;;;;;;;5.10;4.60;;;14.10;99.90;;;;;;4977170;28;20294;-82
2023/11/20 08:43:08;;;;;;;5.77;5.27;;;14.10;99.90;;;;;;4977429;28;20506;-79
2023/11/20 08:45:35;;;;;;;5.07;4.57;;;14.10;99.90;;;;;;4977045;28;20529;-79
2023/11/20 08:48:03;;;;;;;8.90;6.60;;;14.10;99.90;;;;;;4977497;28;20467;-79
2023/11/20 08:50:31;;;;;;;7.33;6.73;;;14.20;99.90;;;;;;4976575;28;20478;-79
2023/11/20 08:52:58;;;;;;;8.33;7.40;;;14.20;99.90;;;;;;4976239;28;20479;-83
2023/11/20 08:55:25;;;;;;;7.53;6.93;;;14.20;99.90;;;;;;4977044;28;20474;-83
2023/11/20 08:57:52;;;;;;;7.50;6.80;;;14.20;99.90;;;;;;4976745;28;20467;-82
2023/11/20 09:00:21;;;;;;;7.23;6.63;;;14.30;99.90;;;;;;4977317;28;20465;-82
2023/11/20 09:02:49;;;;;;;7.40;6.70;;;14.30;99.90;;;;;;4976832;28;20494;-82
2023/11/20 09:05:28;;;;;;;19.70;17.20;;;14.30;99.90;;;;;;4976687;28;20473;-83
2023/11/20 09:07:58;;;;;;;15.70;13.20;;;14.30;99.90;;;;;;4965600;28;20533;-82
2023/11/20 09:10:25;;;;;;;12.77;11.33;;;14.30;99.90;;;;;;4968586;28;20483;-82
2023/11/20 09:12:52;;;;;;;14.20;12.70;;;14.40;99.90;;;;;;4976937;28;20972;-82
2023/11/20 09:15:20;;;;;;;9.47;8.57;;;14.40;99.90;;;;;;4976391;28;21001;-82
2023/11/20 09:17:46;;;;;;;10.87;9.87;;;14.40;99.90;;;;;;4976022;28;21020;-82
2023/11/20 09:20:18;;;;;;;7.30;6.70;;;14.40;99.90;;;;;;4976607;28;21035;-83
2023/11/20 09:22:45;;;;;;;8.30;7.43;;;14.40;99.90;;;;;;4976132;28;20815;-82
2023/11/20 09:25:15;;;;;;;9.17;7.27;;;14.40;99.90;;;;;;4966212;28;20504;-82
2023/11/20 09:27:51;;;;;;;6.13;5.53;;;14.40;99.90;;;;;;4966985;28;20474;-83
2023/11/20 09:30:18;;;;;;;5.47;4.93;;;14.40;99.90;;;;;;4976374;28;20462;-82
2023/11/20 09:32:45;;;;;;;4.90;4.40;;;14.40;99.90;;;;;;4976388;28;20558;-82
2023/11/20 09:35:12;;;;;;;5.00;4.60;;;14.40;99.90;;;;;;4975610;28;20471;-83
2023/11/20 09:37:39;;;;;;;5.77;5.23;;;14.40;99.90;;;;;;4976299;28;20553;-82
2023/11/20 09:40:08;;;;;;;3.97;3.57;;;14.30;99.90;;;;;;4974862;28;20478;-79
2023/11/20 09:42:36;;;;;;;5.30;4.90;;;14.40;99.90;;;;;;4976047;28;20537;-83
2023/11/20 09:45:07;;;;;;;3.60;3.30;;;14.40;99.90;;;;;;4975597;28;20482;-83
2023/11/20 09:47:36;;;;;;;4.13;3.20;;;14.40;99.90;;;;;;4975855;28;20570;-83
2023/11/20 09:50:10;;;;;;;3.90;3.60;;;14.40;99.90;;;;;;4975525;28;20470;-83
2023/11/20 09:52:39;;;;;;;5.83;4.00;;;14.40;99.90;;;;;;4975786;28;20971;-79
2023/11/20 09:55:07;;;;;;;4.30;3.93;;;14.40;99.90;;;;;;4975289;28;20802;-79
2023/11/20 09:57:36;;;;;;;4.53;4.13;;;14.40;99.90;;;;;;4975891;28;20510;-79
2023/11/20 10:00:04;;;;;;;6.20;4.53;;;14.40;99.90;;;;;;4974965;28;20487;-79
2023/11/20 10:02:33;;;;;;;5.10;3.93;;;14.40;99.90;;;;;;4975661;28;20482;-79
2023/11/20 10:05:01;;;;;;;4.63;4.20;;;14.50;99.90;;;;;;4974305;28;20471;-79
2023/11/20 10:07:33;;;;;;;5.10;4.70;;;14.50;99.90;;;;;;4973998;28;20479;-79
2023/11/20 10:10:02;;;;;;;4.43;4.03;;;14.50;99.90;;;;;;4974661;28;20558;-80
2023/11/20 10:12:31;;;;;;;4.30;3.97;;;14.50;99.90;;;;;;4966768;28;20477;-79
2023/11/20 10:15:00;;;;;;;4.13;3.70;;;14.50;99.90;;;;;;4966983;28;20868;-79
2023/11/20 10:17:29;;;;;;;4.10;3.80;;;14.50;99.90;;;;;;4964402;28;20663;-78
2023/11/20 10:19:56;;;;;;;4.57;4.17;;;14.50;99.90;;;;;;4974645;28;20463;-79
2023/11/20 10:22:26;;;;;;;4.10;3.80;;;14.50;99.90;;;;;;4973807;28;20483;-78
2023/11/20 10:24:53;;;;;;;4.90;4.50;;;14.50;99.90;;;;;;4975266;28;20474;-79
2023/11/20 10:27:22;;;;;;;3.80;3.50;;;14.60;99.90;;;;;;4974456;28;20513;-79
2023/11/20 10:29:49;;;;;;;4.17;3.87;;;14.50;99.90;;;;;;4975113;28;20471;-79
2023/11/20 10:32:18;;;;;;;4.20;3.80;;;14.50;99.90;;;;;;4974704;28;20900;-79
2023/11/20 10:34:45;;;;;;;4.10;3.60;;;14.50;99.90;;;;;;4974892;28;20486;-79
2023/11/20 10:40:35;;;;;;;8.60;7.73;;;14.60;99.90;;;;;;4953801;28;20467;-78
2023/11/20 10:43:02;;;;;;;6.20;5.60;;;14.60;99.90;;;;;;4974324;28;20470;-78
2023/11/20 10:45:29;;;;;;;7.23;6.53;;;14.60;99.90;;;;;;4964828;28;20486;-78
2023/11/20 10:47:58;;;;;;;7.80;6.67;;;14.60;99.90;;;;;;4974943;28;20505;-79
2023/11/20 10:50:26;;;;;;;7.57;6.67;;;14.60;99.90;;;;;;4965883;28;20510;-78
2023/11/20 10:52:55;;;;;;;6.13;5.63;;;14.60;99.90;;;;;;4974631;28;20518;-78
2023/11/20 10:55:31;;;;;;;5.57;5.17;;;14.70;99.90;;;;;;4973760;28;20484;-79
2023/11/20 10:57:59;;;;;;;5.90;5.30;;;14.70;99.90;;;;;;4974763;28;20484;-79
2023/11/20 11:00:30;;;;;;;3.53;3.23;;;14.80;99.90;;;;;;4974270;28;20499;-79
2023/11/20 11:02:59;;;;;;;2.60;2.40;;;14.80;99.90;;;;;;4974945;28;20470;-78
2023/11/20 11:05:27;;;;;;;2.70;2.50;;;14.80;99.90;;;;;;4973806;28;21104;-79
2023/11/20 11:07:57;;;;;;;3.20;2.90;;;14.80;99.90;;;;;;4974780;28;20558;-84
2023/11/20 11:10:26;;;;;;;3.50;3.20;;;14.90;99.90;;;;;;4974002;28;20459;-83
2023/11/20 11:12:59;;;;;;;3.17;2.87;;;14.90;99.90;;;;;;4974763;28;20554;-83
2023/11/20 11:15:27;;;;;;;3.10;2.90;;;14.90;99.90;;;;;;4973797;28;20521;-83
2023/11/20 11:18:05;;;;;;;2.73;2.50;;;14.90;99.90;;;;;;4977562;28;20480;-83
2023/11/20 11:20:43;;;;;;;3.47;3.17;;;14.90;99.90;;;;;;4978229;28;20494;-83
2023/11/20 11:23:11;;;;;;;2.37;2.27;;;14.90;99.90;;;;;;4958839;28;20581;-83
2023/11/20 11:29:18;;;;;;;2.50;2.30;;;14.80;99.90;;;;;;4867197;29;20840;-83
2023/11/20 11:32:09;;;;;;;2.53;2.33;;;14.90;99.90;;;;;;4954014;28;20533;-83
2023/11/20 11:35:02;;;;;;;3.13;2.90;;;14.90;99.90;;;;;;4958420;28;20957;-83
2023/11/20 11:37:41;;;;;;;4.43;4.03;;;14.90;99.90;;;;;;4977827;28;20469;-83
2023/11/20 11:40:20;;;;;;;4.40;4.03;;;14.90;99.90;;;;;;4978110;28;20549;-79
2023/11/20 11:42:54;;;;;;;4.30;3.90;;;14.90;99.90;;;;;;4967731;28;21028;-79
2023/11/20 11:45:25;;;;;;;3.03;2.73;;;14.90;99.90;;;;;;4977278;28;20478;-83
2023/11/20 11:47:52;;;;;;;3.30;3.00;;;14.90;99.90;;;;;;4978341;28;20454;-79
2023/11/20 11:50:20;;;;;;;2.90;2.70;;;14.90;99.90;;;;;;4978036;28;20490;-78
2023/11/20 11:52:49;;;;;;;3.03;2.83;;;14.90;99.90;;;;;;4977317;28;20470;-79
2023/11/20 11:55:24;;;;;;;3.30;3.10;;;14.90;99.90;;;;;;4977892;28;20474;-83
2023/11/20 11:57:58;;;;;;;2.30;2.20;;;14.90;99.90;;;;;;4977509;28;20892;-79
2023/11/20 12:00:26;;;;;;;3.27;2.97;;;14.90;99.90;;;;;;4978004;28;20467;-78
2023/11/20 12:03:00;;;;;;;3.50;3.20;;;14.90;99.90;;;;;;4977608;28;20471;-78
2023/11/20 12:06:15;;;;;;;2.80;2.60;;;14.90;99.90;;;;;;4977414;28;20475;-78
2023/11/20 12:08:47;;;;;;;3.57;3.27;;;14.90;99.90;;;;;;4977852;28;20462;-83
2023/11/20 12:11:52;;;;;;;3.53;3.23;;;14.90;99.90;;;;;;4977181;28;21051;-83
2023/11/20 12:14:21;;;;;;;4.70;2.60;;;14.90;99.90;;;;;;4977479;28;20469;-83
2023/11/20 12:16:48;;;;;;;2.90;2.70;;;14.90;99.90;;;;;;4977622;28;20505;-83
2023/11/20 12:19:16;;;;;;;3.23;3.00;;;14.90;99.90;;;;;;4976973;28;20498;-84
2023/11/20 12:21:44;;;;;;;3.70;3.43;;;14.90;99.90;;;;;;4977477;28;20479;-83
2023/11/20 12:24:18;;;;;;;3.50;3.20;;;14.90;99.90;;;;;;4976954;28;20570;-83
2023/11/20 12:26:45;;;;;;;2.83;2.53;;;14.80;99.90;;;;;;4966278;28;20478;-79
2023/11/20 12:29:14;;;;;;;3.27;2.97;;;14.80;99.90;;;;;;4975920;28;20571;-79
2023/11/20 12:31:42;;;;;;;3.23;3.03;;;14.80;99.90;;;;;;4977000;28;20475;-79
2023/11/20 12:34:13;;;;;;;3.93;3.63;;;14.80;99.90;;;;;;4976649;28;20475;-79
2023/11/20 12:36:40;;;;;;;3.70;3.40;;;14.80;99.90;;;;;;4977239;28;20481;-79
2023/11/20 12:39:08;;;;;;;3.80;3.50;;;14.80;99.90;;;;;;4976589;28;20529;-83
2023/11/20 12:41:35;;;;;;;4.17;3.77;;;14.80;99.90;;;;;;4976940;28;20479;-83
2023/11/20 12:44:03;;;;;;;5.47;4.47;;;14.80;99.90;;;;;;4976830;28;20956;-83
2023/11/20 12:46:31;;;;;;;10.50;9.40;;;14.80;99.90;;;;;;4976252;28;20462;-84
2023/11/20 12:48:58;;;;;;;12.87;11.53;;;14.80;99.90;;;;;;4976928;28;20533;-83
2023/11/20 12:57:06;;;;;;;10.53;9.30;;;14.80;99.90;;;;;;4975778;28;20466;-83
2023/11/20 12:59:33;;;;;;;8.97;8.17;;;14.80;99.90;;;;;;4976803;28;20530;-83
2023/11/20 13:02:07;;;;;;;9.07;8.20;;;14.80;99.90;;;;;;4975915;28;20517;-83
2023/11/20 13:04:36;;;;;;;13.13;11.83;;;14.80;99.90;;;;;;4976673;28;20536;-83
2023/11/20 13:07:06;;;;;;;14.00;12.70;;;14.90;99.90;;;;;;4975851;28;20479;-83